sensor_id;sensor_type;location;lat;lon;timestamp;temperature;humidity
30889;DHT22;51092;50.874;7.024;2022-07-22T00:00:50;17.60;99.90
30889;DHT22;51092;50.874;7.024;2022-07-22T00:01:54;17.60;99.90
30889;DHT22;51092;50.874;7.024;2022-07-22T00:02:56;17.70;99.90
30889;DHT22;51092;50.874;7.024;2022-07-22T00:03:58;17.80;99.90
30889;DHT22;51092;50.874;7.024;2022-07-22T00:05:01;17.80;99.90
30889;DHT22;51092;50.874;7.024;2022-07-22T00:06:04;17.70;99.90
30889;DHT22;51092;50.874;7.024;2022-07-22T00:07:06;17.70;99.90
30889;DHT22;51092;50.874;7.024;2022-07-22T00:08:08;17.60;99.90
30889;DHT22;51092;50.874;7.024;2022-07-22T00:09:10;17.70;99.90
30889;DHT22;51092;50.874;7.024;2022-07-22T00:10:12;17.60;99.90
30889;DHT22;51092;50.874;7.024;2022-07-22T00:11:14;17.70;99.90
30889;DHT22;51092;50.874;7.024;2022-07-22T00:12:17;17.70;99.90
30889;DHT22;51092;50.874;7.024;2022-07-22T00:13:18;17.70;99.90
30889;DHT22;51092;50.874;7.024;2022-07-22T00:14:21;17.80;99.90
30889;DHT22;51092;50.874;7.024;2022-07-22T00:15:23;17.60;99.90
30889;DHT22;51092;50.874;7.024;2022-07-22T00:16:25;17.60;99.90
30889;DHT22;51092;50.874;7.024;2022-07-22T00:17:28;17.60;99.90
30889;DHT22;51092;50.874;7.024;2022-07-22T00:18:31;17.50;99.90
30889;DHT22;51092;50.874;7.024;2022-07-22T00:19:33;17.50;99.90
30889;DHT22;51092;50.874;7.024;2022-07-22T00:20:36;17.50;99.90
30889;DHT22;51092;50.874;7.024;2022-07-22T00:21:37;17.50;99.90
30889;DHT22;51092;50.874;7.024;2022-07-22T00:22:40;17.60;99.90
30889;DHT22;51092;50.874;7.024;2022-07-22T00:23:42;17.50;99.90
30889;DHT22;51092;50.874;7.024;2022-07-22T00:24:44;17.60;99.90
30889;DHT22;51092;50.874;7.024;2022-07-22T00:25:46;17.60;99.90
30889;DHT22;51092;50.874;7.024;2022-07-22T00:26:48;17.50;99.90
30889;DHT22;51092;50.874;7.024;2022-07-22T00:27:49;17.60;99.90
30889;DHT22;51092;50.874;7.024;2022-07-22T00:28:51;17.60;99.90
30889;DHT22;51092;50.874;7.024;2022-07-22T00:29:52;17.50;99.90
30889;DHT22;51092;50.874;7.024;2022-07-22T00:30:54;17.50;99.90
30889;DHT22;51092;50.874;7.024;2022-07-22T00:31:56;17.50;99.90
30889;DHT22;51092;50.874;7.024;2022-07-22T00:33:00;17.50;99.90
30889;DHT22;51092;50.874;7.024;2022-07-22T00:34:02;17.50;99.90
30889;DHT22;51092;50.874;7.024;2022-07-22T00:35:06;17.50;99.90
30889;DHT22;51092;50.874;7.024;2022-07-22T00:36:07;17.50;99.90
30889;DHT22;51092;50.874;7.024;2022-07-22T00:37:10;17.50;99.90
30889;DHT22;51092;50.874;7.024;2022-07-22T00:38:12;17.50;99.90
30889;DHT22;51092;50.874;7.024;2022-07-22T00:39:14;17.40;99.90
30889;DHT22;51092;50.874;7.024;2022-07-22T00:40:16;17.40;99.90
30889;DHT22;51092;50.874;7.024;2022-07-22T00:41:19;17.30;99.90
30889;DHT22;51092;50.874;7.024;2022-07-22T00:42:21;17.30;99.90
30889;DHT22;51092;50.874;7.024;2022-07-22T00:43:24;17.30;99.90
30889;DHT22;51092;50.874;7.024;2022-07-22T00:44:25;17.30;99.90
30889;DHT22;51092;50.874;7.024;2022-07-22T00:45:28;17.30;99.90
30889;DHT22;51092;50.874;7.024;2022-07-22T00:46:30;17.30;99.90
30889;DHT22;51092;50.874;7.024;2022-07-22T00:47:33;17.30;99.90
30889;DHT22;51092;50.874;7.024;2022-07-22T00:48:37;17.20;99.90
30889;DHT22;51092;50.874;7.024;2022-07-22T00:49:39;17.30;99.90
30889;DHT22;51092;50.874;7.024;2022-07-22T00:50:41;17.30;99.90
30889;DHT22;51092;50.874;7.024;2022-07-22T00:51:46;17.30;99.90
30889;DHT22;51092;50.874;7.024;2022-07-22T00:52:47;17.40;99.90
30889;DHT22;51092;50.874;7.024;2022-07-22T00:53:51;17.30;99.90
30889;DHT22;51092;50.874;7.024;2022-07-22T00:54:54;17.20;99.90
30889;DHT22;51092;50.874;7.024;2022-07-22T00:55:58;17.20;99.90
30889;DHT22;51092;50.874;7.024;2022-07-22T00:57:00;17.10;99.90
30889;DHT22;51092;50.874;7.024;2022-07-22T00:58:03;17.10;99.90
30889;DHT22;51092;50.874;7.024;2022-07-22T00:59:07;17.10;99.90
30889;DHT22;51092;50.874;7.024;2022-07-22T01:00:14;17.10;99.90
30889;DHT22;51092;50.874;7.024;2022-07-22T01:01:17;17.10;99.90
30889;DHT22;51092;50.874;7.024;2022-07-22T01:02:20;17.10;99.90
30889;DHT22;51092;50.874;7.024;2022-07-22T01:03:21;17.10;99.90
30889;DHT22;51092;50.874;7.024;2022-07-22T01:04:25;17.10;99.90
30889;DHT22;51092;50.874;7.024;2022-07-22T01:05:28;17.20;99.90
30889;DHT22;51092;50.874;7.024;2022-07-22T01:06:30;17.20;99.90
30889;DHT22;51092;50.874;7.024;2022-07-22T01:07:32;17.20;99.90
30889;DHT22;51092;50.874;7.024;2022-07-22T01:08:34;17.20;99.90
30889;DHT22;51092;50.874;7.024;2022-07-22T01:09:37;17.20;99.90
30889;DHT22;51092;50.874;7.024;2022-07-22T01:10:39;17.20;99.90
30889;DHT22;51092;50.874;7.024;2022-07-22T01:11:41;17.20;99.90
30889;DHT22;51092;50.874;7.024;2022-07-22T01:12:44;17.20;99.90
30889;DHT22;51092;50.874;7.024;2022-07-22T01:13:46;17.10;99.90
30889;DHT22;51092;50.874;7.024;2022-07-22T01:14:49;17.10;99.90
30889;DHT22;51092;50.874;7.024;2022-07-22T01:15:51;17.10;99.90
30889;DHT22;51092;50.874;7.024;2022-07-22T01:16:53;17.10;99.90
30889;DHT22;51092;50.874;7.024;2022-07-22T01:17:56;17.00;99.90
30889;DHT22;51092;50.874;7.024;2022-07-22T01:18:58;17.00;99.90
30889;DHT22;51092;50.874;7.024;2022-07-22T01:20:03;17.00;99.90
30889;DHT22;51092;50.874;7.024;2022-07-22T01:21:06;17.00;99.90
30889;DHT22;51092;50.874;7.024;2022-07-22T01:22:09;17.00;99.90
30889;DHT22;51092;50.874;7.024;2022-07-22T01:23:11;17.00;99.90
30889;DHT22;51092;50.874;7.024;2022-07-22T01:24:13;17.00;99.90
30889;DHT22;51092;50.874;7.024;2022-07-22T01:25:15;17.00;99.90
30889;DHT22;51092;50.874;7.024;2022-07-22T01:26:18;17.00;99.90
30889;DHT22;51092;50.874;7.024;2022-07-22T01:27:19;17.00;99.90
30889;DHT22;51092;50.874;7.024;2022-07-22T01:28:22;17.00;99.90
30889;DHT22;51092;50.874;7.024;2022-07-22T01:29:24;17.00;99.90
30889;DHT22;51092;50.874;7.024;2022-07-22T01:30:27;17.00;99.90
30889;DHT22;51092;50.874;7.024;2022-07-22T01:31:28;17.00;99.90
30889;DHT22;51092;50.874;7.024;2022-07-22T01:32:31;17.10;99.90
30889;DHT22;51092;50.874;7.024;2022-07-22T01:33:33;17.10;99.90
30889;DHT22;51092;50.874;7.024;2022-07-22T01:34:36;17.10;99.90
30889;DHT22;51092;50.874;7.024;2022-07-22T01:35:39;17.00;99.90
30889;DHT22;51092;50.874;7.024;2022-07-22T01:36:42;17.00;99.90
30889;DHT22;51092;50.874;7.024;2022-07-22T01:37:44;17.00;99.90
30889;DHT22;51092;50.874;7.024;2022-07-22T01:38:46;17.00;99.90
30889;DHT22;51092;50.874;7.024;2022-07-22T01:39:49;17.10;99.90
30889;DHT22;51092;50.874;7.024;2022-07-22T01:40:51;17.10;99.90
30889;DHT22;51092;50.874;7.024;2022-07-22T01:41:53;17.00;99.90
30889;DHT22;51092;50.874;7.024;2022-07-22T01:42:56;17.00;99.90
30889;DHT22;51092;50.874;7.024;2022-07-22T01:43:57;17.00;99.90
30889;DHT22;51092;50.874;7.024;2022-07-22T01:45:00;17.00;99.90
30889;DHT22;51092;50.874;7.024;2022-07-22T01:46:02;16.90;99.90
30889;DHT22;51092;50.874;7.024;2022-07-22T01:47:04;16.90;99.90
30889;DHT22;51092;50.874;7.024;2022-07-22T01:48:06;16.90;99.90
30889;DHT22;51092;50.874;7.024;2022-07-22T01:49:08;16.90;99.90
30889;DHT22;51092;50.874;7.024;2022-07-22T01:50:11;17.00;99.90
30889;DHT22;51092;50.874;7.024;2022-07-22T01:51:15;17.00;99.90
30889;DHT22;51092;50.874;7.024;2022-07-22T01:52:18;17.00;99.90
30889;DHT22;51092;50.874;7.024;2022-07-22T01:53:19;16.90;99.90
30889;DHT22;51092;50.874;7.024;2022-07-22T01:54:22;16.90;99.90
30889;DHT22;51092;50.874;7.024;2022-07-22T01:55:24;16.80;99.90
30889;DHT22;51092;50.874;7.024;2022-07-22T01:56:26;16.80;99.90
30889;DHT22;51092;50.874;7.024;2022-07-22T01:57:28;16.80;99.90
30889;DHT22;51092;50.874;7.024;2022-07-22T01:58:30;16.80;99.90
30889;DHT22;51092;50.874;7.024;2022-07-22T01:59:32;16.80;99.90
30889;DHT22;51092;50.874;7.024;2022-07-22T02:00:35;16.80;99.90
30889;DHT22;51092;50.874;7.024;2022-07-22T02:01:37;16.80;99.90
30889;DHT22;51092;50.874;7.024;2022-07-22T02:02:40;16.80;99.90
30889;DHT22;51092;50.874;7.024;2022-07-22T02:03:41;16.80;99.90
30889;DHT22;51092;50.874;7.024;2022-07-22T02:04:44;16.90;99.90
30889;DHT22;51092;50.874;7.024;2022-07-22T02:05:45;17.00;99.90
30889;DHT22;51092;50.874;7.024;2022-07-22T02:06:49;17.10;99.90
30889;DHT22;51092;50.874;7.024;2022-07-22T02:07:51;17.10;99.90
30889;DHT22;51092;50.874;7.024;2022-07-22T02:08:54;17.20;99.90
30889;DHT22;51092;50.874;7.024;2022-07-22T02:09:56;17.30;99.90
30889;DHT22;51092;50.874;7.024;2022-07-22T02:10:58;17.30;99.90
30889;DHT22;51092;50.874;7.024;2022-07-22T02:12:00;17.30;99.90
30889;DHT22;51092;50.874;7.024;2022-07-22T02:13:03;17.30;99.90
30889;DHT22;51092;50.874;7.024;2022-07-22T02:14:05;17.20;99.90
30889;DHT22;51092;50.874;7.024;2022-07-22T02:15:08;17.20;99.90
30889;DHT22;51092;50.874;7.024;2022-07-22T02:16:10;17.20;99.90
30889;DHT22;51092;50.874;7.024;2022-07-22T02:17:13;17.00;99.90
30889;DHT22;51092;50.874;7.024;2022-07-22T02:18:17;16.90;99.90
30889;DHT22;51092;50.874;7.024;2022-07-22T02:19:20;16.90;99.90
30889;DHT22;51092;50.874;7.024;2022-07-22T02:20:21;16.80;99.90
30889;DHT22;51092;50.874;7.024;2022-07-22T02:21:24;16.80;99.90
30889;DHT22;51092;50.874;7.024;2022-07-22T02:22:28;16.90;99.90
30889;DHT22;51092;50.874;7.024;2022-07-22T02:23:30;17.00;99.90
30889;DHT22;51092;50.874;7.024;2022-07-22T02:24:32;17.10;99.90
30889;DHT22;51092;50.874;7.024;2022-07-22T02:25:34;17.00;99.90
30889;DHT22;51092;50.874;7.024;2022-07-22T02:26:37;17.00;99.90
30889;DHT22;51092;50.874;7.024;2022-07-22T02:27:40;17.00;99.90
30889;DHT22;51092;50.874;7.024;2022-07-22T02:28:43;16.90;99.90
30889;DHT22;51092;50.874;7.024;2022-07-22T02:29:45;16.90;99.90
30889;DHT22;51092;50.874;7.024;2022-07-22T02:30:48;16.80;99.90
30889;DHT22;51092;50.874;7.024;2022-07-22T02:31:50;16.90;99.90
30889;DHT22;51092;50.874;7.024;2022-07-22T02:32:52;16.90;99.90
30889;DHT22;51092;50.874;7.024;2022-07-22T02:33:54;17.00;99.90
30889;DHT22;51092;50.874;7.024;2022-07-22T02:34:56;17.00;99.90
30889;DHT22;51092;50.874;7.024;2022-07-22T02:35:58;17.00;99.90
30889;DHT22;51092;50.874;7.024;2022-07-22T02:37:01;16.90;99.90
30889;DHT22;51092;50.874;7.024;2022-07-22T02:38:04;17.00;99.90
30889;DHT22;51092;50.874;7.024;2022-07-22T02:39:06;17.00;99.90
30889;DHT22;51092;50.874;7.024;2022-07-22T02:40:09;17.00;99.90
30889;DHT22;51092;50.874;7.024;2022-07-22T02:41:11;17.00;99.90
30889;DHT22;51092;50.874;7.024;2022-07-22T02:42:13;17.00;99.90
30889;DHT22;51092;50.874;7.024;2022-07-22T02:43:16;17.20;99.90
30889;DHT22;51092;50.874;7.024;2022-07-22T02:44:17;17.20;99.90
30889;DHT22;51092;50.874;7.024;2022-07-22T02:45:20;17.30;99.90
30889;DHT22;51092;50.874;7.024;2022-07-22T02:46:22;17.30;99.90
30889;DHT22;51092;50.874;7.024;2022-07-22T02:47:25;17.30;99.90
30889;DHT22;51092;50.874;7.024;2022-07-22T02:48:27;17.40;99.90
30889;DHT22;51092;50.874;7.024;2022-07-22T02:49:29;17.40;99.90
30889;DHT22;51092;50.874;7.024;2022-07-22T02:50:30;17.50;99.90
30889;DHT22;51092;50.874;7.024;2022-07-22T02:51:33;17.50;99.90
30889;DHT22;51092;50.874;7.024;2022-07-22T02:52:34;17.50;99.90
30889;DHT22;51092;50.874;7.024;2022-07-22T02:53:37;17.40;99.90
30889;DHT22;51092;50.874;7.024;2022-07-22T02:54:39;17.40;99.90
30889;DHT22;51092;50.874;7.024;2022-07-22T02:55:42;17.30;99.90
30889;DHT22;51092;50.874;7.024;2022-07-22T02:56:43;17.20;99.90
30889;DHT22;51092;50.874;7.024;2022-07-22T02:57:46;17.20;99.90
30889;DHT22;51092;50.874;7.024;2022-07-22T02:58:47;17.30;99.90
30889;DHT22;51092;50.874;7.024;2022-07-22T02:59:54;17.40;99.90
30889;DHT22;51092;50.874;7.024;2022-07-22T03:00:56;17.50;99.90
30889;DHT22;51092;50.874;7.024;2022-07-22T03:01:58;17.50;99.90
30889;DHT22;51092;50.874;7.024;2022-07-22T03:03:00;17.40;99.90
30889;DHT22;51092;50.874;7.024;2022-07-22T03:04:02;17.50;99.90
30889;DHT22;51092;50.874;7.024;2022-07-22T03:05:06;17.60;99.90
30889;DHT22;51092;50.874;7.024;2022-07-22T03:06:07;17.60;99.90
30889;DHT22;51092;50.874;7.024;2022-07-22T03:07:10;17.50;99.90
30889;DHT22;51092;50.874;7.024;2022-07-22T03:08:11;17.40;99.90
30889;DHT22;51092;50.874;7.024;2022-07-22T03:09:16;17.50;99.90
30889;DHT22;51092;50.874;7.024;2022-07-22T03:10:17;17.50;99.90
30889;DHT22;51092;50.874;7.024;2022-07-22T03:11:20;17.50;99.90
30889;DHT22;51092;50.874;7.024;2022-07-22T03:12:21;17.60;99.90
30889;DHT22;51092;50.874;7.024;2022-07-22T03:13:24;17.60;99.90
30889;DHT22;51092;50.874;7.024;2022-07-22T03:14:25;17.60;99.90
30889;DHT22;51092;50.874;7.024;2022-07-22T03:15:28;17.60;99.90
30889;DHT22;51092;50.874;7.024;2022-07-22T03:16:30;17.60;99.90
30889;DHT22;51092;50.874;7.024;2022-07-22T03:17:33;17.60;99.90
30889;DHT22;51092;50.874;7.024;2022-07-22T03:18:35;17.60;99.90
30889;DHT22;51092;50.874;7.024;2022-07-22T03:19:37;17.60;99.90
30889;DHT22;51092;50.874;7.024;2022-07-22T03:20:39;17.60;99.90
30889;DHT22;51092;50.874;7.024;2022-07-22T03:21:41;17.60;99.90
30889;DHT22;51092;50.874;7.024;2022-07-22T03:22:43;17.50;99.90
30889;DHT22;51092;50.874;7.024;2022-07-22T03:23:46;17.60;99.90
30889;DHT22;51092;50.874;7.024;2022-07-22T03:24:49;17.50;99.90
30889;DHT22;51092;50.874;7.024;2022-07-22T03:25:51;17.50;99.90
30889;DHT22;51092;50.874;7.024;2022-07-22T03:26:53;17.50;99.90
30889;DHT22;51092;50.874;7.024;2022-07-22T03:27:56;17.50;99.90
30889;DHT22;51092;50.874;7.024;2022-07-22T03:28:57;17.40;99.90
30889;DHT22;51092;50.874;7.024;2022-07-22T03:30:00;17.50;99.90
30889;DHT22;51092;50.874;7.024;2022-07-22T03:31:02;17.50;99.90
30889;DHT22;51092;50.874;7.024;2022-07-22T03:32:04;17.50;99.90
30889;DHT22;51092;50.874;7.024;2022-07-22T03:33:07;17.50;99.90
30889;DHT22;51092;50.874;7.024;2022-07-22T03:34:09;17.40;99.90
30889;DHT22;51092;50.874;7.024;2022-07-22T03:35:11;17.40;99.90
30889;DHT22;51092;50.874;7.024;2022-07-22T03:36:13;17.40;99.90
30889;DHT22;51092;50.874;7.024;2022-07-22T03:37:15;17.20;99.90
30889;DHT22;51092;50.874;7.024;2022-07-22T03:38:17;17.20;99.90
30889;DHT22;51092;50.874;7.024;2022-07-22T03:39:19;17.20;99.90
30889;DHT22;51092;50.874;7.024;2022-07-22T03:40:22;17.20;99.90
30889;DHT22;51092;50.874;7.024;2022-07-22T03:41:25;17.20;99.90
30889;DHT22;51092;50.874;7.024;2022-07-22T03:42:28;17.30;99.90
30889;DHT22;51092;50.874;7.024;2022-07-22T03:43:29;17.40;99.90
30889;DHT22;51092;50.874;7.024;2022-07-22T03:44:32;17.30;99.90
30889;DHT22;51092;50.874;7.024;2022-07-22T03:45:34;17.50;99.90
30889;DHT22;51092;50.874;7.024;2022-07-22T03:46:36;17.50;99.90
30889;DHT22;51092;50.874;7.024;2022-07-22T03:47:39;17.50;99.90
30889;DHT22;51092;50.874;7.024;2022-07-22T03:48:41;17.60;99.90
30889;DHT22;51092;50.874;7.024;2022-07-22T03:49:44;17.60;99.90
30889;DHT22;51092;50.874;7.024;2022-07-22T03:50:45;17.60;99.90
30889;DHT22;51092;50.874;7.024;2022-07-22T03:51:47;17.70;99.90
30889;DHT22;51092;50.874;7.024;2022-07-22T03:52:48;17.70;99.90
30889;DHT22;51092;50.874;7.024;2022-07-22T03:53:51;17.70;99.90
30889;DHT22;51092;50.874;7.024;2022-07-22T03:54:52;17.70;99.90
30889;DHT22;51092;50.874;7.024;2022-07-22T03:55:56;17.80;99.90
30889;DHT22;51092;50.874;7.024;2022-07-22T03:56:58;17.70;99.90
30889;DHT22;51092;50.874;7.024;2022-07-22T03:58:00;17.60;99.90
30889;DHT22;51092;50.874;7.024;2022-07-22T03:59:02;17.50;99.90
30889;DHT22;51092;50.874;7.024;2022-07-22T04:00:06;17.50;99.90
30889;DHT22;51092;50.874;7.024;2022-07-22T04:01:08;17.40;99.90
30889;DHT22;51092;50.874;7.024;2022-07-22T04:02:10;17.50;99.90
30889;DHT22;51092;50.874;7.024;2022-07-22T04:03:12;17.50;99.90
30889;DHT22;51092;50.874;7.024;2022-07-22T04:04:14;17.40;99.90
30889;DHT22;51092;50.874;7.024;2022-07-22T04:05:16;17.20;99.90
30889;DHT22;51092;50.874;7.024;2022-07-22T04:06:19;17.10;99.90
30889;DHT22;51092;50.874;7.024;2022-07-22T04:07:20;17.00;99.90
30889;DHT22;51092;50.874;7.024;2022-07-22T04:08:23;17.10;99.90
30889;DHT22;51092;50.874;7.024;2022-07-22T04:09:25;17.10;99.90
30889;DHT22;51092;50.874;7.024;2022-07-22T04:10:27;17.10;99.90
30889;DHT22;51092;50.874;7.024;2022-07-22T04:11:30;17.00;99.90
30889;DHT22;51092;50.874;7.024;2022-07-22T04:12:34;17.00;99.90
30889;DHT22;51092;50.874;7.024;2022-07-22T04:13:35;17.10;99.90
30889;DHT22;51092;50.874;7.024;2022-07-22T04:14:38;17.20;99.90
30889;DHT22;51092;50.874;7.024;2022-07-22T04:15:40;17.20;99.90
30889;DHT22;51092;50.874;7.024;2022-07-22T04:16:42;17.20;99.90
30889;DHT22;51092;50.874;7.024;2022-07-22T04:17:45;17.20;99.90
30889;DHT22;51092;50.874;7.024;2022-07-22T04:18:47;17.20;99.90
30889;DHT22;51092;50.874;7.024;2022-07-22T04:19:49;17.20;99.90
30889;DHT22;51092;50.874;7.024;2022-07-22T04:20:51;17.10;99.90
30889;DHT22;51092;50.874;7.024;2022-07-22T04:21:54;17.10;99.90
30889;DHT22;51092;50.874;7.024;2022-07-22T04:22:55;17.10;99.90
30889;DHT22;51092;50.874;7.024;2022-07-22T04:23:58;17.10;99.90
30889;DHT22;51092;50.874;7.024;2022-07-22T04:24:59;17.20;99.90
30889;DHT22;51092;50.874;7.024;2022-07-22T04:26:02;17.30;99.90
30889;DHT22;51092;50.874;7.024;2022-07-22T04:27:05;17.40;99.90
30889;DHT22;51092;50.874;7.024;2022-07-22T04:28:08;17.30;99.90
30889;DHT22;51092;50.874;7.024;2022-07-22T04:29:09;17.10;99.90
30889;DHT22;51092;50.874;7.024;2022-07-22T04:30:12;17.00;99.90
30889;DHT22;51092;50.874;7.024;2022-07-22T04:31:14;17.00;99.90
30889;DHT22;51092;50.874;7.024;2022-07-22T04:32:17;17.10;99.90
30889;DHT22;51092;50.874;7.024;2022-07-22T04:33:18;17.10;99.90
30889;DHT22;51092;50.874;7.024;2022-07-22T04:34:21;17.00;99.90
30889;DHT22;51092;50.874;7.024;2022-07-22T04:35:22;16.90;99.90
30889;DHT22;51092;50.874;7.024;2022-07-22T04:36:25;16.90;99.90
30889;DHT22;51092;50.874;7.024;2022-07-22T04:37:28;17.00;99.90
30889;DHT22;51092;50.874;7.024;2022-07-22T04:38:30;17.10;99.90
30889;DHT22;51092;50.874;7.024;2022-07-22T04:39:32;17.10;99.90
30889;DHT22;51092;50.874;7.024;2022-07-22T04:40:34;17.20;99.90
30889;DHT22;51092;50.874;7.024;2022-07-22T04:41:36;17.20;99.90
30889;DHT22;51092;50.874;7.024;2022-07-22T04:42:40;17.10;99.90
30889;DHT22;51092;50.874;7.024;2022-07-22T04:43:42;16.90;99.90
30889;DHT22;51092;50.874;7.024;2022-07-22T04:44:44;16.90;99.90
30889;DHT22;51092;50.874;7.024;2022-07-22T04:45:46;16.90;99.90
30889;DHT22;51092;50.874;7.024;2022-07-22T04:46:49;17.00;99.90
30889;DHT22;51092;50.874;7.024;2022-07-22T04:47:50;17.00;99.90
30889;DHT22;51092;50.874;7.024;2022-07-22T04:48:53;17.10;99.90
30889;DHT22;51092;50.874;7.024;2022-07-22T04:49:54;17.20;99.90
30889;DHT22;51092;50.874;7.024;2022-07-22T04:50:58;17.20;99.90
30889;DHT22;51092;50.874;7.024;2022-07-22T04:52:01;17.20;99.90
30889;DHT22;51092;50.874;7.024;2022-07-22T04:53:04;17.30;99.90
30889;DHT22;51092;50.874;7.024;2022-07-22T04:54:06;17.40;99.90
30889;DHT22;51092;50.874;7.024;2022-07-22T04:55:09;17.30;99.90
30889;DHT22;51092;50.874;7.024;2022-07-22T04:56:10;17.20;99.90
30889;DHT22;51092;50.874;7.024;2022-07-22T04:57:13;17.20;99.90
30889;DHT22;51092;50.874;7.024;2022-07-22T04:58:16;17.20;99.90
30889;DHT22;51092;50.874;7.024;2022-07-22T04:59:19;17.00;99.90
30889;DHT22;51092;50.874;7.024;2022-07-22T05:00:20;16.90;99.90
30889;DHT22;51092;50.874;7.024;2022-07-22T05:01:24;16.80;99.90
30889;DHT22;51092;50.874;7.024;2022-07-22T05:02:26;16.80;99.90
30889;DHT22;51092;50.874;7.024;2022-07-22T05:03:28;16.80;99.90
30889;DHT22;51092;50.874;7.024;2022-07-22T05:04:30;16.80;99.90
30889;DHT22;51092;50.874;7.024;2022-07-22T05:05:32;17.00;99.90
30889;DHT22;51092;50.874;7.024;2022-07-22T05:06:35;17.10;99.90
30889;DHT22;51092;50.874;7.024;2022-07-22T05:07:37;17.20;99.90
30889;DHT22;51092;50.874;7.024;2022-07-22T05:08:40;17.30;99.90
30889;DHT22;51092;50.874;7.024;2022-07-22T05:09:41;17.40;99.90
30889;DHT22;51092;50.874;7.024;2022-07-22T05:10:44;17.60;99.90
30889;DHT22;51092;50.874;7.024;2022-07-22T05:11:46;17.70;99.90
30889;DHT22;51092;50.874;7.024;2022-07-22T05:12:48;17.70;99.90
30889;DHT22;51092;50.874;7.024;2022-07-22T05:13:51;17.70;99.90
30889;DHT22;51092;50.874;7.024;2022-07-22T05:14:53;17.80;99.90
30889;DHT22;51092;50.874;7.024;2022-07-22T05:15:55;17.90;99.90
30889;DHT22;51092;50.874;7.024;2022-07-22T05:16:58;17.90;99.90
30889;DHT22;51092;50.874;7.024;2022-07-22T05:17:59;17.90;99.90
30889;DHT22;51092;50.874;7.024;2022-07-22T05:19:02;17.90;99.90
30889;DHT22;51092;50.874;7.024;2022-07-22T05:20:05;17.80;99.90
30889;DHT22;51092;50.874;7.024;2022-07-22T05:21:08;17.70;99.90
30889;DHT22;51092;50.874;7.024;2022-07-22T05:22:10;17.70;99.90
30889;DHT22;51092;50.874;7.024;2022-07-22T05:23:13;17.70;99.90
30889;DHT22;51092;50.874;7.024;2022-07-22T05:24:15;17.70;99.90
30889;DHT22;51092;50.874;7.024;2022-07-22T05:25:17;17.80;99.90
30889;DHT22;51092;50.874;7.024;2022-07-22T05:26:19;17.80;99.90
30889;DHT22;51092;50.874;7.024;2022-07-22T05:27:21;17.80;99.90
30889;DHT22;51092;50.874;7.024;2022-07-22T05:28:23;17.80;99.90
30889;DHT22;51092;50.874;7.024;2022-07-22T05:29:27;17.80;99.90
30889;DHT22;51092;50.874;7.024;2022-07-22T05:30:29;17.70;99.90
30889;DHT22;51092;50.874;7.024;2022-07-22T05:31:31;17.60;99.90
30889;DHT22;51092;50.874;7.024;2022-07-22T05:32:33;17.60;99.90
30889;DHT22;51092;50.874;7.024;2022-07-22T05:33:35;17.60;99.90
30889;DHT22;51092;50.874;7.024;2022-07-22T05:34:37;17.70;99.90
30889;DHT22;51092;50.874;7.024;2022-07-22T05:35:40;17.70;99.90
30889;DHT22;51092;50.874;7.024;2022-07-22T05:36:41;17.70;99.90
30889;DHT22;51092;50.874;7.024;2022-07-22T05:37:44;17.70;99.90
30889;DHT22;51092;50.874;7.024;2022-07-22T05:38:46;17.80;99.90
30889;DHT22;51092;50.874;7.024;2022-07-22T05:39:48;17.80;99.90
30889;DHT22;51092;50.874;7.024;2022-07-22T05:40:50;17.80;99.90
30889;DHT22;51092;50.874;7.024;2022-07-22T05:41:52;17.80;99.90
30889;DHT22;51092;50.874;7.024;2022-07-22T05:42:54;17.80;99.90
30889;DHT22;51092;50.874;7.024;2022-07-22T05:43:57;17.70;99.90
30889;DHT22;51092;50.874;7.024;2022-07-22T05:45:00;17.50;99.90
30889;DHT22;51092;50.874;7.024;2022-07-22T05:46:03;17.40;99.90
30889;DHT22;51092;50.874;7.024;2022-07-22T05:47:05;17.30;99.90
30889;DHT22;51092;50.874;7.024;2022-07-22T05:48:09;17.20;99.90
30889;DHT22;51092;50.874;7.024;2022-07-22T05:49:11;17.10;99.90
30889;DHT22;51092;50.874;7.024;2022-07-22T05:50:14;17.00;99.90
30889;DHT22;51092;50.874;7.024;2022-07-22T05:51:15;16.90;99.90
30889;DHT22;51092;50.874;7.024;2022-07-22T05:52:18;16.90;99.90
30889;DHT22;51092;50.874;7.024;2022-07-22T05:53:20;16.80;99.90
30889;DHT22;51092;50.874;7.024;2022-07-22T05:54:22;16.80;99.90
30889;DHT22;51092;50.874;7.024;2022-07-22T05:55:24;16.80;99.90
30889;DHT22;51092;50.874;7.024;2022-07-22T05:56:26;16.70;99.90
30889;DHT22;51092;50.874;7.024;2022-07-22T05:57:28;16.70;99.90
30889;DHT22;51092;50.874;7.024;2022-07-22T05:58:31;16.70;99.90
30889;DHT22;51092;50.874;7.024;2022-07-22T05:59:32;16.80;99.90
30889;DHT22;51092;50.874;7.024;2022-07-22T06:00:36;16.80;99.90
30889;DHT22;51092;50.874;7.024;2022-07-22T06:01:38;16.70;99.90
30889;DHT22;51092;50.874;7.024;2022-07-22T06:02:40;16.70;99.90
30889;DHT22;51092;50.874;7.024;2022-07-22T06:03:42;16.80;99.90
30889;DHT22;51092;50.874;7.024;2022-07-22T06:04:45;16.80;99.90
30889;DHT22;51092;50.874;7.024;2022-07-22T06:05:46;16.80;99.90
30889;DHT22;51092;50.874;7.024;2022-07-22T06:06:49;16.90;99.90
30889;DHT22;51092;50.874;7.024;2022-07-22T06:07:51;17.00;99.90
30889;DHT22;51092;50.874;7.024;2022-07-22T06:08:53;17.10;99.90
30889;DHT22;51092;50.874;7.024;2022-07-22T06:09:56;17.10;99.90
30889;DHT22;51092;50.874;7.024;2022-07-22T06:10:58;17.10;99.90
30889;DHT22;51092;50.874;7.024;2022-07-22T06:12:01;17.10;99.90
30889;DHT22;51092;50.874;7.024;2022-07-22T06:13:04;17.20;99.90
30889;DHT22;51092;50.874;7.024;2022-07-22T06:14:05;17.20;99.90
30889;DHT22;51092;50.874;7.024;2022-07-22T06:15:09;17.30;99.90
30889;DHT22;51092;50.874;7.024;2022-07-22T06:16:11;17.30;99.90
30889;DHT22;51092;50.874;7.024;2022-07-22T06:17:13;17.40;99.90
30889;DHT22;51092;50.874;7.024;2022-07-22T06:18:14;17.40;99.90
30889;DHT22;51092;50.874;7.024;2022-07-22T06:19:16;17.50;99.90
30889;DHT22;51092;50.874;7.024;2022-07-22T06:20:18;17.60;99.90
30889;DHT22;51092;50.874;7.024;2022-07-22T06:21:20;17.70;99.90
30889;DHT22;51092;50.874;7.024;2022-07-22T06:22:23;17.70;99.90
30889;DHT22;51092;50.874;7.024;2022-07-22T06:23:24;17.70;99.90
30889;DHT22;51092;50.874;7.024;2022-07-22T06:24:27;17.60;99.90
30889;DHT22;51092;50.874;7.024;2022-07-22T06:25:29;17.50;99.90
30889;DHT22;51092;50.874;7.024;2022-07-22T06:26:31;17.50;99.90
30889;DHT22;51092;50.874;7.024;2022-07-22T06:27:33;17.50;99.90
30889;DHT22;51092;50.874;7.024;2022-07-22T06:28:35;17.70;99.90
30889;DHT22;51092;50.874;7.024;2022-07-22T06:29:37;17.50;99.90
30889;DHT22;51092;50.874;7.024;2022-07-22T06:30:40;17.40;99.90
30889;DHT22;51092;50.874;7.024;2022-07-22T06:31:42;17.40;99.90
30889;DHT22;51092;50.874;7.024;2022-07-22T06:32:44;17.40;99.90
30889;DHT22;51092;50.874;7.024;2022-07-22T06:33:46;17.40;99.90